Pasadena 2N

39° 08' 31"N, 76° 30' 27"W, Elevation 43 ft.
Eastern Time

Hourly observations for the last 72 hours

Date Time Temperature (°F) Humi-
dity

(%)
Wind
(mph)
Pressure Rain (in) Sun
(W/m2)
ET
(in)
Air Dew 6 Hour 1 Hr 3 Hr 6 Hr Day
Alt
(in)
Sea
Level

(mb)
Max Min
18 07:00 43.3 38.2 82 WNW 0 G 1 29.89 1012.1 0.00 0 0.004
18 06:00 43.3 38.2 82 W 1 G 7 29.86 1011.1 0.00 0 0.004
18 05:00 43.6 38.5 82 NW 0 G 7 29.84 1010.5 0.00 0 0.004
18 04:00 44.1 38.3 80 NW 0 G 1 29.83 1010.0 0.00 0 0.003
18 03:00 45.9 38.1 74 W 0 G 3 29.81 1009.5 0.00 0 0.002
18 02:00 47.9 38.6 54.6 47.9 70 W 1 G 5 29.81 1009.5 0.00 0 0.001
18 01:00 49.8 38.9 66 W 2 G 11 29.80 1009.2 0.00 0 0.000
18 00:00 51.0 38.9 63 W 2 G 10 29.79 1008.9 0.00 0 0.085
17 23:00 51.8 39.2 62 WNW 5 G 13 29.78 1008.5 0.00 0 0.083
17 22:00 52.7 39.2 60 WNW 5 G 11 29.78 1008.5 0.00 0 0.081
17 21:00 53.7 39.7 59 W 2 G 10 29.75 1007.6 0.00 0 0.079
17 20:00 54.4 40.4 60.4 53.8 59 W 6 G 15 29.74 1007.0 0.00 0 0.077
17 19:00 54.0 40.4 60 WNW 4 G 18 29.70 1005.8 0.00 0 0.075
17 18:00 54.4 40.8 60 W 6 G 19 29.68 1005.1 0.00 14 0.073
17 17:00 55.9 41.3 58 W 5 G 23 29.65 1004.1 0.00 49 0.069
17 16:00 57.3 41.3 55 W 11 G 27 29.63 1003.4 0.00 134 0.063
17 15:00 58.3 41.7 54 WNW 7 G 24 29.61 1002.9 0.00 70 0.055
17 14:00 59.0 41.9 60.2 52.7 53 W 4 G 24 29.60 1002.4 0.00 708 0.042
17 13:00 59.7 42.1 52 W 9 G 24 29.60 1002.4 0.00 810 0.026
17 12:00 58.1 43.0 57 W 7 G 19 29.61 1002.6 0.00 708 0.019
17 11:00 56.1 42.4 60 WSW 7 G 28 29.59 1002.0 0.00 74 0.015
17 10:00 54.9 42.1 62 W 7 G 30 29.58 1001.6 0.00 42 0.012
17 09:00 53.3 42.2 66 W 7 G 19 29.58 1001.6 0.00 33 0.010
17 08:00 52.8 41.8 53.5 50.3 66 W 5 G 16 29.56 1001.1 0.00 19 0.008
17 07:00 53.2 41.7 65 W 9 G 20 29.55 1000.5 0.00 0 0.006
17 06:00 52.8 42.5 68 W 4 G 14 29.54 1000.5 0.00 0 0.005
17 05:00 51.3 43.7 75 WSW 3 G 10 29.52 999.8 0.00 0 0.004
17 04:00 50.3 43.0 76 WSW 4 G 11 29.50 999.1 0.00 0 0.003
17 03:00 50.7 42.4 73 W 2 G 11 29.52 999.6 0.00 0 0.002
17 02:00 50.9 41.8 54.5 50.8 71 W 4 G 17 29.51 999.5 0.00 0 0.001
17 01:00 51.3 42.6 72 WNW 2 G 13 29.52 999.7 0.00 0 0.000
17 00:00 51.8 42.3 70 WNW 7 G 17 29.51 999.4 1.27 0 0.013
16 23:00 52.5 42.6 69 W 7 G 18 29.50 999.2 1.27 0 0.011
16 22:00 53.8 45.0 72 NW 5 G 22 29.51 999.3 1.27 0 0.009
16 21:00 53.5 45.8 75 W 6 G 15 29.50 998.9 1.27 0 0.008
16 20:00 54.4 47.3 60.6 54.3 77 W 5 G 19 29.49 998.7 0.01 0.63 1.27 0 0.007
16 19:00 56.5 53.6 90 W 6 G 12 29.47 997.8 1.27 0 0.007
16 18:00 57.1 55.4 94 WNW 3 G 14 29.45 997.3 0.01 1.27 19 0.006
16 17:00 58.9 57.5 95 W 3 G 12 29.45 997.3 0.03 0.62 1.26 54 0.005
16 16:00 59.8 58.4 95 NW 2 G 10 29.46 997.7 0.22 1.23 23 0.005
16 15:00 59.9 58.5 95 E 0 G 2 29.50 999.2 0.37 1.01 9 0.005
16 14:00 60.6 58.9 63.2 60.6 94 S 0 G 8 29.57 1001.5 0.28 0.59 0.64 0.64 16 0.005
16 13:00 63.1 61.6 95 S 6 G 13 29.61 1002.8 0.24 0.36 23 0.004
16 12:00 62.0 60.3 94 NE 0 G 3 29.65 1004.2 0.07 0.12 67 0.003
16 11:00 61.9 59.9 93 SE 3 G 8 29.70 1006.0 0.05 0.05 0.05 58 0.002
16 10:00 62.5 59.5 90 SE 4 G 11 29.77 1008.3 0.00 25 0.001
16 09:00 61.7 59.7 93 S 2 G 7 29.81 1009.5 0.00 25 0.000
16 08:00 61.2 59.5 61.6 56.5 94 SE 1 G 7 29.86 1011.1 0.00 32 0.000
16 07:00 61.3 59.6 94 SSE 1 G 6 29.85 1011.0 0.00 0 0.000
16 06:00 60.0 58.3 94 SE 0 G 6 29.87 1011.5 0.00 0 0.000
16 05:00 57.8 55.8 93 SSE 1 G 3 29.90 1012.4 0.00 0 0.000
16 04:00 58.5 56.2 92 ESE 0 G 4 29.91 1013.0 0.00 0 0.000
16 03:00 59.0 56.7 92 SE 2 G 7 29.95 1014.2 0.00 0 0.000
16 02:00 56.9 54.0 57.4 51.4 90 SSE 2 G 6 29.97 1015.0 0.00 0 0.000
16 01:00 57.3 53.8 88 SSE 1 G 9 29.99 1015.6 0.00 0 0.000
16 00:00 56.1 52.9 89 SSE 2 G 9 30.00 1016.0 0.00 0 0.064
15 23:00 52.2 49.4 90 SE 0 G 4 30.02 1016.5 0.00 0 0.064
15 22:00 51.6 47.9 87 Calm 30.02 1016.6 0.00 0 0.064
15 21:00 52.5 47.5 83 Calm 30.02 1016.6 0.00 0 0.063
15 20:00 53.4 46.7 69.2 53.4 78 Calm 30.03 1017.1 0.00 0 0.062
15 19:00 57.0 47.3 70 Calm 30.04 1017.4 0.00 0 0.062
15 18:00 63.1 47.2 56 SSE 0 G 3 30.05 1017.5 0.00 14 0.061
15 17:00 66.3 45.5 47 E 3 G 7 30.06 1017.8 0.00 30 0.057
15 16:00 68.5 45.1 43 E 2 G 9 30.07 1018.4 0.00 410 0.051
15 15:00 66.8 45.9 47 E 0 G 4 30.09 1019.0 0.00 58 0.041
15 14:00 68.9 49.0 68.9 43.4 49 ENE 0 G 2 30.12 1019.9 0.00 657 0.025
15 13:00 67.9 50.7 54 E 1 G 7 30.14 1020.7 0.00 684 0.009
15 12:00 63.7 51.3 64 E 1 G 6 30.16 1021.3 0.00 649 0.003
15 11:00 59.8 50.4 71 E 2 G 8 30.17 1021.6 0.00 46 0.001
15 10:00 57.8 50.3 76 NE 3 G 9 30.18 1022.0 0.00 37 0.000
15 09:00 52.2 48.8 88 NE 1 G 5 30.18 1022.0 0.00 32 0.000
15 08:00 43.4 41.8 48.9 43.0 94 Calm 30.16 1021.3 0.00 16 0.000

Data generated by WxSolution Version 1.9.1.6, Build 2018.07.01.